createdAt,value
2022-10-10T00:01:25.923Z,63.48
2022-10-10T00:03:53.557Z,63.70
2022-10-10T00:06:21.441Z,63.74
2022-10-10T00:08:48.792Z,63.99
2022-10-10T00:11:17.820Z,63.54
2022-10-10T00:13:44.632Z,63.45
2022-10-10T00:16:12.026Z,63.02
2022-10-10T00:18:39.955Z,63.27
2022-10-10T00:21:07.487Z,62.89
2022-10-10T00:23:34.944Z,63.05
2022-10-10T00:26:06.865Z,62.88
2022-10-10T00:28:38.684Z,62.33
2022-10-10T00:31:09.692Z,63.06
2022-10-10T00:33:37.797Z,62.41
2022-10-10T00:36:05.537Z,62.33
2022-10-10T00:38:32.843Z,62.34
2022-10-10T00:40:59.820Z,61.89
2022-10-10T00:43:27.715Z,61.71
2022-10-10T00:45:54.977Z,61.47
2022-10-10T00:48:29.111Z,61.48
2022-10-10T00:50:58.843Z,61.60
2022-10-10T00:53:30.579Z,61.55
2022-10-10T00:55:57.530Z,61.53
2022-10-10T00:58:24.765Z,61.30
2022-10-10T01:00:52.873Z,61.51
2022-10-10T01:03:20.569Z,61.66
2022-10-10T01:05:48.677Z,61.55
2022-10-10T01:08:17.636Z,61.49
2022-10-10T01:11:05.631Z,61.50
2022-10-10T01:14:22.404Z,61.64
2022-10-10T01:17:01.434Z,61.22
2022-10-10T01:19:38.731Z,61.46
2022-10-10T01:22:14.576Z,60.79
2022-10-10T01:25:09.138Z,60.73
2022-10-10T01:27:43.028Z,60.47
2022-10-10T01:30:17.937Z,60.09
2022-10-10T01:32:50.563Z,59.99
2022-10-10T01:35:32.044Z,59.86
2022-10-10T01:38:13.719Z,59.39
2022-10-10T01:40:46.761Z,59.27
2022-10-10T01:43:13.997Z,58.80
2022-10-10T01:45:48.804Z,58.82
2022-10-10T01:48:23.520Z,58.57
2022-10-10T01:51:24.502Z,58.59
2022-10-10T01:54:00.384Z,58.50
2022-10-10T01:56:36.157Z,58.06
2022-10-10T01:59:11.920Z,58.33
2022-10-10T02:01:53.950Z,58.21
2022-10-10T02:04:32.891Z,58.66
2022-10-10T02:07:11.286Z,58.25
2022-10-10T02:09:42.075Z,58.47
2022-10-10T02:12:12.711Z,58.71
2022-10-10T02:14:46.393Z,58.66
2022-10-10T02:17:15.620Z,58.67
2022-10-10T02:19:46.783Z,58.38
2022-10-10T02:22:14.234Z,58.46
2022-10-10T02:24:41.526Z,58.56
2022-10-10T02:27:32.820Z,58.91
2022-10-10T02:30:02.858Z,58.92
2022-10-10T02:32:42.133Z,59.20
2022-10-10T02:35:13.280Z,58.57
2022-10-10T02:37:43.823Z,58.70
2022-10-10T02:40:14.358Z,58.66
2022-10-10T02:42:41.953Z,58.64
2022-10-10T02:45:09.422Z,58.21
2022-10-10T02:47:36.170Z,57.93
2022-10-10T02:50:03.321Z,57.97
2022-10-10T02:52:30.160Z,58.30
2022-10-10T02:54:56.890Z,58.17
2022-10-10T02:57:23.618Z,58.60
2022-10-10T02:59:50.397Z,58.67
2022-10-10T03:02:17.161Z,58.64
2022-10-10T03:04:44.936Z,58.82
2022-10-10T03:07:11.870Z,59.14
2022-10-10T03:09:38.565Z,59.51
2022-10-10T03:12:05.691Z,59.73
2022-10-10T03:14:34.660Z,60.73
2022-10-10T03:17:01.638Z,61.42
2022-10-10T03:19:28.317Z,62.51
2022-10-10T03:21:55.185Z,63.39
2022-10-10T03:24:21.914Z,63.57
2022-10-10T03:26:48.605Z,63.65
2022-10-10T03:29:15.511Z,63.78
2022-10-10T03:31:42.229Z,64.58
2022-10-10T03:34:09.007Z,65.34
2022-10-10T03:36:35.821Z,66.15
2022-10-10T03:39:02.621Z,65.94
2022-10-10T03:41:29.393Z,66.55
2022-10-10T03:43:57.106Z,66.59
2022-10-10T03:46:23.791Z,66.79
2022-10-10T03:48:50.602Z,66.76
2022-10-10T03:51:17.390Z,66.64
2022-10-10T03:53:44.208Z,66.61
2022-10-10T03:56:10.965Z,66.62
2022-10-10T03:58:37.789Z,66.56
2022-10-10T04:01:05.575Z,66.33
2022-10-10T04:03:32.445Z,66.89
2022-10-10T04:05:59.428Z,66.85
2022-10-10T04:08:26.646Z,66.48
2022-10-10T04:10:54.751Z,66.43
2022-10-10T04:13:23.009Z,66.59
2022-10-10T04:15:51.657Z,66.45
2022-10-10T04:18:19.101Z,66.23
2022-10-10T04:20:45.941Z,66.43
2022-10-10T04:23:12.733Z,65.63
2022-10-10T04:25:39.593Z,65.06
2022-10-10T04:28:06.529Z,65.59
2022-10-10T04:30:34.789Z,65.80
2022-10-10T04:33:02.608Z,65.43
2022-10-10T04:35:29.428Z,65.51
2022-10-10T04:37:56.136Z,66.14
2022-10-10T04:40:26.465Z,66.39
2022-10-10T04:42:54.921Z,67.26
2022-10-10T04:45:21.843Z,67.67
2022-10-10T04:47:48.641Z,68.70
2022-10-10T04:50:15.569Z,69.06
2022-10-10T04:52:42.311Z,68.84
2022-10-10T04:55:09.140Z,68.68
2022-10-10T04:57:36.036Z,68.69
2022-10-10T05:00:04.831Z,69.06
2022-10-10T05:02:31.589Z,68.55
2022-10-10T05:04:58.436Z,68.05
2022-10-10T05:07:25.216Z,69.03
2022-10-10T05:09:51.901Z,69.45
2022-10-10T05:12:18.936Z,69.43
2022-10-10T05:14:48.079Z,69.14
2022-10-10T05:17:15.454Z,69.01
2022-10-10T05:19:42.857Z,69.03
2022-10-10T05:22:09.673Z,69.84
2022-10-10T05:24:36.424Z,69.59
2022-10-10T05:27:03.310Z,70.00
2022-10-10T05:29:30.028Z,70.93
2022-10-10T05:31:56.817Z,71.41
2022-10-10T05:34:24.089Z,72.62
2022-10-10T05:36:50.942Z,73.66
2022-10-10T05:39:17.791Z,74.78
2022-10-10T05:41:44.702Z,75.14
2022-10-10T05:44:11.862Z,75.66
2022-10-10T05:46:38.539Z,76.00
2022-10-10T05:49:05.472Z,76.05
2022-10-10T05:51:32.347Z,76.74
2022-10-10T05:53:59.292Z,77.01
2022-10-10T05:56:26.165Z,76.97
2022-10-10T05:58:52.922Z,77.02
2022-10-10T06:01:19.696Z,76.73
2022-10-10T06:03:52.801Z,76.75
2022-10-10T06:06:19.759Z,76.57
2022-10-10T06:08:46.495Z,76.52
2022-10-10T06:11:13.340Z,76.54
2022-10-10T06:13:40.040Z,76.47
2022-10-10T06:16:07.184Z,76.78
2022-10-10T06:18:34.238Z,76.52
2022-10-10T06:21:06.012Z,76.86
2022-10-10T06:23:33.438Z,77.10
2022-10-10T06:26:00.463Z,77.00
2022-10-10T06:28:27.221Z,77.57
2022-10-10T06:30:54.046Z,77.35
2022-10-10T06:33:20.960Z,77.01
2022-10-10T06:35:49.197Z,77.16
2022-10-10T06:38:17.146Z,77.45
2022-10-10T06:40:44.472Z,77.37
2022-10-10T06:43:13.262Z,77.21
2022-10-10T06:45:42.588Z,76.63
2022-10-10T06:48:10.079Z,76.74
2022-10-10T06:50:37.523Z,76.62
2022-10-10T06:53:05.366Z,76.06
2022-10-10T06:55:32.432Z,75.96
2022-10-10T06:57:59.175Z,76.20
2022-10-10T07:00:26.016Z,76.63
2022-10-10T07:02:53.335Z,76.58
2022-10-10T07:05:20.409Z,76.06
2022-10-10T07:07:47.228Z,75.90
2022-10-10T07:10:16.084Z,75.79
2022-10-10T07:12:52.332Z,75.91
2022-10-10T07:15:19.306Z,75.66
2022-10-10T07:17:50.501Z,74.87
2022-10-10T07:20:20.396Z,74.81
2022-10-10T07:22:47.083Z,74.78
2022-10-10T07:25:13.945Z,74.79
2022-10-10T07:27:40.730Z,74.68
2022-10-10T07:30:07.942Z,74.06
2022-10-10T07:32:34.833Z,74.20
2022-10-10T07:35:01.813Z,73.72
2022-10-10T07:37:28.556Z,73.71
2022-10-10T07:39:55.338Z,73.33
2022-10-10T07:42:22.153Z,73.61
2022-10-10T07:44:48.873Z,73.80
2022-10-10T07:47:15.670Z,73.75
2022-10-10T07:49:42.457Z,72.60
2022-10-10T07:52:09.316Z,72.06
2022-10-10T07:54:36.072Z,72.07
2022-10-10T07:57:02.922Z,72.00
2022-10-10T07:59:29.812Z,71.57
2022-10-10T08:01:56.815Z,71.55
2022-10-10T08:04:24.087Z,71.39
2022-10-10T08:06:50.827Z,71.46
2022-10-10T08:09:17.561Z,71.70
2022-10-10T08:11:44.468Z,71.06
2022-10-10T08:14:11.212Z,70.71
2022-10-10T08:16:38.132Z,69.96
2022-10-10T08:19:05.128Z,70.03
2022-10-10T08:21:32.532Z,69.79
2022-10-10T08:23:59.632Z,69.55
2022-10-10T08:26:26.460Z,69.25
2022-10-10T08:28:53.274Z,68.95
2022-10-10T08:31:22.337Z,68.41
2022-10-10T08:33:50.877Z,68.15
2022-10-10T08:36:24.809Z,68.09
2022-10-10T08:38:57.302Z,68.04
2022-10-10T08:41:29.691Z,67.94
2022-10-10T08:44:05.150Z,67.84
2022-10-10T08:47:06.217Z,67.62
2022-10-10T08:49:46.814Z,68.08
2022-10-10T08:52:19.548Z,67.41
2022-10-10T08:54:48.985Z,66.80
2022-10-10T08:57:27.277Z,67.51
2022-10-10T09:00:02.205Z,67.32
2022-10-10T09:03:01.059Z,67.83
2022-10-10T09:05:52.728Z,68.54
2022-10-10T09:08:37.896Z,69.42
2022-10-10T09:11:34.676Z,69.47
2022-10-10T09:14:31.624Z,70.37
2022-10-10T09:17:18.741Z,70.51
2022-10-10T09:20:15.834Z,71.42
2022-10-10T09:23:25.616Z,71.26
2022-10-10T09:26:06.425Z,72.01
2022-10-10T09:28:58.821Z,72.82
2022-10-10T09:31:44.088Z,72.27
2022-10-10T09:34:49.190Z,72.03
2022-10-10T09:37:45.671Z,72.11
2022-10-10T09:40:34.902Z,72.93
2022-10-10T09:43:21.141Z,73.70
2022-10-10T09:45:53.056Z,73.41
2022-10-10T09:48:26.180Z,73.43
2022-10-10T09:50:53.032Z,73.49
2022-10-10T09:53:21.017Z,73.65
2022-10-10T09:55:50.113Z,73.10
2022-10-10T09:58:29.153Z,73.90
2022-10-10T10:01:23.426Z,74.00
2022-10-10T10:04:26.912Z,73.93
2022-10-10T10:07:17.467Z,73.62
2022-10-10T10:09:51.634Z,73.64
2022-10-10T10:12:24.976Z,73.06
2022-10-10T10:14:58.843Z,73.46
2022-10-10T10:17:25.796Z,73.94
2022-10-10T10:19:52.889Z,74.23
2022-10-10T10:22:35.429Z,74.29
2022-10-10T10:25:30.631Z,74.53
2022-10-10T10:28:13.110Z,74.54
2022-10-10T10:30:41.165Z,74.54
2022-10-10T10:33:26.069Z,74.39
2022-10-10T10:36:51.547Z,74.71
2022-10-10T10:39:55.797Z,74.94
2022-10-10T10:42:22.492Z,74.48
2022-10-10T10:45:16.975Z,75.00
2022-10-10T10:48:24.547Z,75.12
2022-10-10T10:51:00.086Z,75.25
2022-10-10T10:53:50.908Z,75.47
2022-10-10T10:57:06.473Z,75.55
2022-10-10T11:00:20.941Z,75.53
2022-10-10T11:03:21.124Z,75.68
2022-10-10T11:06:03.848Z,76.13
2022-10-10T11:08:33.877Z,76.23
2022-10-10T11:11:26.656Z,76.86
2022-10-10T11:14:21.765Z,76.52
2022-10-10T11:17:11.733Z,76.61
2022-10-10T11:19:56.812Z,76.78
2022-10-10T11:22:34.394Z,75.93
2022-10-10T11:25:24.019Z,75.77
2022-10-10T11:28:20.993Z,75.97
2022-10-10T11:30:57.357Z,75.67
2022-10-10T11:33:30.902Z,75.58
2022-10-10T11:36:06.378Z,75.99
2022-10-10T11:38:45.157Z,75.66
2022-10-10T11:41:33.336Z,75.97
2022-10-10T11:44:14.845Z,76.37
2022-10-10T11:47:06.290Z,76.62
2022-10-10T11:50:01.966Z,76.72
2022-10-10T11:52:39.964Z,76.62
2022-10-10T11:55:13.220Z,77.09
2022-10-10T11:58:06.133Z,77.04
2022-10-10T12:00:51.928Z,77.46
2022-10-10T12:03:18.881Z,77.21
2022-10-10T12:05:54.142Z,77.45
2022-10-10T12:08:35.539Z,77.72
2022-10-10T12:11:22.893Z,78.22
2022-10-10T12:13:55.469Z,78.45
2022-10-10T12:16:30.404Z,78.47
2022-10-10T12:19:22.069Z,79.08
2022-10-10T12:22:01.118Z,78.87
2022-10-10T12:24:40.912Z,78.88
2022-10-10T12:27:25.392Z,78.82
2022-10-10T12:29:58.123Z,78.46
2022-10-10T12:32:39.933Z,78.44
2022-10-10T12:35:28.692Z,78.43
2022-10-10T12:38:19.138Z,78.44
2022-10-10T12:40:58.421Z,78.58
2022-10-10T12:44:12.442Z,78.69
2022-10-10T12:46:39.414Z,78.53
2022-10-10T12:49:18.196Z,78.44
2022-10-10T12:51:59.454Z,78.67
2022-10-10T12:54:31.986Z,78.46
2022-10-10T12:57:09.395Z,78.45
2022-10-10T12:59:37.783Z,78.57
2022-10-10T13:02:13.104Z,78.55
2022-10-10T13:04:46.414Z,78.60
2022-10-10T13:07:18.041Z,78.37
2022-10-10T13:09:47.872Z,78.46
2022-10-10T13:12:23.892Z,78.70
2022-10-10T13:14:50.669Z,78.57
2022-10-10T13:17:29.412Z,78.57
2022-10-10T13:20:01.032Z,78.95
2022-10-10T13:22:30.291Z,78.75
2022-10-10T13:24:58.268Z,79.23
2022-10-10T13:27:28.428Z,79.22
2022-10-10T13:29:56.031Z,79.22
2022-10-10T13:32:29.596Z,79.39
2022-10-10T13:35:07.537Z,79.52
2022-10-10T13:37:34.582Z,79.44
2022-10-10T13:40:01.720Z,79.48
2022-10-10T13:42:37.677Z,79.68
2022-10-10T13:45:27.886Z,80.10
2022-10-10T13:48:03.218Z,79.74
2022-10-10T13:50:29.960Z,79.61
2022-10-10T13:53:27.770Z,79.93
2022-10-10T13:56:16.209Z,80.07
2022-10-10T13:58:45.838Z,79.97
2022-10-10T14:01:43.983Z,80.96
2022-10-10T14:04:13.645Z,80.04
2022-10-10T14:07:09.019Z,80.03
2022-10-10T14:09:53.403Z,79.76
2022-10-10T14:12:32.165Z,80.00
2022-10-10T14:15:00.944Z,79.57
2022-10-10T14:17:29.104Z,79.69
2022-10-10T14:19:56.760Z,79.55
2022-10-10T14:22:23.775Z,79.81
2022-10-10T14:24:50.717Z,79.71
2022-10-10T14:27:20.490Z,79.64
2022-10-10T14:29:47.481Z,79.49
2022-10-10T14:32:15.617Z,79.56
2022-10-10T14:34:42.775Z,79.42
2022-10-10T14:37:18.944Z,79.73
2022-10-10T14:39:46.751Z,78.95
2022-10-10T14:42:15.819Z,79.50
2022-10-10T14:44:42.812Z,79.76
2022-10-10T14:47:16.161Z,79.27
2022-10-10T14:49:43.314Z,79.40
2022-10-10T14:52:10.362Z,79.38
2022-10-10T14:54:37.104Z,79.39
2022-10-10T14:57:09.549Z,79.09
2022-10-10T14:59:46.169Z,78.67
2022-10-10T15:02:20.588Z,79.01
2022-10-10T15:04:47.666Z,78.82
2022-10-10T15:07:15.514Z,78.84
2022-10-10T15:12:36.802Z,79.42
2022-10-10T15:15:04.684Z,79.10
2022-10-10T15:17:34.691Z,79.33
2022-10-10T15:20:03.000Z,79.12
2022-10-10T15:22:30.886Z,79.37
2022-10-10T15:24:57.879Z,79.25
2022-10-10T15:27:25.635Z,79.54
2022-10-10T15:29:52.439Z,79.74
2022-10-10T15:32:19.286Z,79.91
2022-10-10T15:34:50.088Z,79.87
2022-10-10T15:37:17.535Z,79.31
2022-10-10T15:39:48.128Z,79.55
2022-10-10T15:42:21.526Z,79.76
2022-10-10T15:44:50.231Z,79.80
2022-10-10T15:47:18.616Z,79.93
2022-10-10T15:49:45.392Z,79.71
2022-10-10T15:52:12.321Z,79.84
2022-10-10T15:54:39.225Z,80.18
2022-10-10T15:57:06.000Z,79.98
2022-10-10T15:59:33.202Z,79.85
2022-10-10T16:02:01.015Z,79.90
2022-10-10T16:04:27.775Z,80.15
2022-10-10T16:07:19.277Z,79.74
2022-10-10T16:09:41.396Z,79.79
2022-10-10T16:12:08.331Z,80.03
2022-10-10T16:14:35.173Z,80.06
2022-10-10T16:17:01.988Z,80.14
2022-10-10T16:19:28.978Z,79.91
2022-10-10T16:21:55.999Z,80.00
2022-10-10T16:24:22.759Z,79.78
2022-10-10T16:26:49.534Z,80.12
2022-10-10T16:29:18.732Z,79.96
2022-10-10T16:31:45.975Z,79.77
2022-10-10T16:34:15.338Z,79.83
2022-10-10T16:36:43.203Z,79.90
2022-10-10T16:39:09.930Z,79.63
2022-10-10T16:41:52.441Z,79.82
2022-10-10T16:44:19.344Z,79.82
2022-10-10T16:46:46.303Z,79.95
2022-10-10T16:49:16.441Z,80.17
2022-10-10T16:51:43.413Z,79.82
2022-10-10T16:54:10.301Z,80.04
2022-10-10T16:56:37.156Z,80.07
2022-10-10T16:59:04.416Z,80.14
2022-10-10T17:01:31.692Z,79.84
2022-10-10T17:03:59.777Z,79.83
2022-10-10T17:06:32.590Z,79.71
2022-10-10T17:09:02.945Z,79.91
2022-10-10T17:11:29.841Z,79.76
2022-10-10T17:13:56.584Z,80.00
2022-10-10T17:19:13.299Z,79.66
2022-10-10T17:21:40.546Z,79.71
2022-10-10T17:24:07.447Z,79.68
2022-10-10T17:26:34.223Z,79.96
2022-10-10T17:29:01.163Z,80.00
2022-10-10T17:31:28.124Z,79.54
2022-10-10T17:33:58.257Z,79.67
2022-10-10T17:36:27.136Z,79.85
2022-10-10T17:39:00.468Z,79.95
2022-10-10T17:41:28.374Z,80.01
2022-10-10T17:43:55.353Z,79.92
2022-10-10T17:46:41.825Z,79.99
2022-10-10T17:49:11.085Z,80.02
2022-10-10T17:51:39.350Z,79.85
2022-10-10T17:54:07.143Z,80.09
2022-10-10T17:56:34.609Z,80.28
2022-10-10T17:59:02.051Z,80.06
2022-10-10T18:01:30.947Z,80.06
2022-10-10T18:03:58.553Z,80.11
2022-10-10T18:06:25.582Z,80.24
2022-10-10T18:08:53.787Z,80.05
2022-10-10T18:11:25.855Z,80.07
2022-10-10T18:13:52.754Z,80.16
2022-10-10T18:16:23.292Z,80.22
2022-10-10T18:18:52.199Z,80.20
2022-10-10T18:21:21.321Z,80.32
2022-10-10T18:23:48.645Z,80.50
2022-10-10T18:26:20.575Z,80.44
2022-10-10T18:28:48.338Z,80.41
2022-10-10T18:31:18.205Z,80.29
2022-10-10T18:33:45.578Z,80.39
2022-10-10T18:36:15.470Z,80.39
2022-10-10T18:38:42.180Z,81.44
2022-10-10T18:41:17.498Z,80.63
2022-10-10T18:43:45.210Z,81.11
2022-10-10T18:46:17.308Z,80.74
2022-10-10T18:48:47.173Z,80.79
2022-10-10T18:51:24.340Z,80.90
2022-10-10T18:53:53.377Z,80.79
2022-10-10T18:56:24.670Z,80.94
2022-10-10T18:58:56.377Z,81.00
2022-10-10T19:01:25.565Z,81.08
2022-10-10T19:03:53.984Z,80.91
2022-10-10T19:06:23.233Z,81.03
2022-10-10T19:08:51.709Z,81.04
2022-10-10T19:11:24.436Z,81.08
2022-10-10T19:13:51.808Z,80.98
2022-10-10T19:16:18.791Z,81.14
2022-10-10T19:18:45.924Z,81.11
2022-10-10T19:21:13.339Z,81.29
2022-10-10T19:23:40.389Z,81.12
2022-10-10T19:26:09.890Z,81.38
2022-10-10T19:28:37.817Z,81.28
2022-10-10T19:31:09.624Z,81.19
2022-10-10T19:33:37.292Z,81.17
2022-10-10T19:36:06.080Z,81.16
2022-10-10T19:38:38.889Z,81.17
2022-10-10T19:41:08.402Z,81.22
2022-10-10T19:43:35.347Z,81.31
2022-10-10T19:46:11.065Z,81.43
2022-10-10T19:48:37.861Z,81.48
2022-10-10T19:51:07.303Z,81.41
2022-10-10T19:53:36.123Z,81.39
2022-10-10T19:56:05.843Z,81.39
2022-10-10T19:58:33.585Z,81.50
2022-10-10T20:01:00.728Z,81.40
2022-10-10T20:03:27.440Z,81.50
2022-10-10T20:06:00.706Z,81.45
2022-10-10T20:08:28.228Z,81.47
2022-10-10T20:10:55.042Z,81.48
2022-10-10T20:13:21.877Z,81.34
2022-10-10T20:15:49.577Z,81.53
2022-10-10T20:18:21.554Z,81.20
2022-10-10T20:20:51.372Z,81.34
2022-10-10T20:23:20.779Z,81.29
2022-10-10T20:25:47.932Z,81.17
2022-10-10T20:28:17.212Z,81.13
2022-10-10T20:30:49.839Z,81.17
2022-10-10T20:33:18.467Z,81.07
2022-10-10T20:35:46.938Z,81.04
2022-10-10T20:38:14.392Z,80.82
2022-10-10T20:40:44.988Z,80.81
2022-10-10T20:43:12.501Z,80.74
2022-10-10T20:45:40.780Z,80.59
2022-10-10T20:48:08.739Z,80.98
2022-10-10T20:50:37.168Z,80.66
2022-10-10T20:53:04.625Z,80.82
2022-10-10T20:55:31.524Z,80.60
2022-10-10T20:57:58.251Z,80.37
2022-10-10T21:00:25.316Z,80.37
2022-10-10T21:02:53.025Z,80.30
2022-10-10T21:05:19.839Z,80.36
2022-10-10T21:07:46.729Z,80.35
2022-10-10T21:10:13.494Z,79.97
2022-10-10T21:12:40.299Z,80.08
2022-10-10T21:15:07.505Z,80.32
2022-10-10T21:17:34.385Z,80.42
2022-10-10T21:20:01.316Z,80.68
2022-10-10T21:22:28.506Z,80.51
2022-10-10T21:24:55.270Z,80.25
2022-10-10T21:27:22.005Z,80.32
2022-10-10T21:29:48.756Z,80.23
2022-10-10T21:32:15.702Z,80.16
2022-10-10T21:34:42.449Z,79.80
2022-10-10T21:37:09.293Z,79.83
2022-10-10T21:39:36.055Z,79.67
2022-10-10T21:42:02.810Z,79.21
2022-10-10T21:44:29.810Z,79.40
2022-10-10T21:46:56.595Z,79.49
2022-10-10T21:49:23.316Z,79.48
2022-10-10T21:51:50.384Z,79.43
2022-10-10T21:54:17.194Z,79.40
2022-10-10T21:56:44.361Z,79.41
2022-10-10T21:59:11.596Z,79.26
2022-10-10T22:01:38.474Z,79.01
2022-10-10T22:04:05.917Z,78.83
2022-10-10T22:06:32.933Z,78.85
2022-10-10T22:09:01.060Z,78.70
2022-10-10T22:11:30.024Z,78.79
2022-10-10T22:13:56.963Z,78.82
2022-10-10T22:16:24.157Z,78.81
2022-10-10T22:18:57.996Z,78.88
2022-10-10T22:21:30.294Z,78.92
2022-10-10T22:23:59.514Z,79.14
2022-10-10T22:26:26.356Z,79.18
2022-10-10T22:28:53.372Z,78.93
2022-10-10T22:31:20.329Z,79.26
2022-10-10T22:33:47.083Z,78.93
2022-10-10T22:36:13.906Z,79.22
2022-10-10T22:38:43.548Z,79.23
2022-10-10T22:41:12.122Z,79.19
2022-10-10T22:43:38.961Z,79.13
2022-10-10T22:46:06.448Z,78.80
2022-10-10T22:48:33.883Z,78.64
2022-10-10T22:51:16.376Z,78.63
2022-10-10T22:53:44.453Z,78.43
2022-10-10T22:56:13.676Z,78.21
2022-10-10T22:58:40.619Z,78.71
2022-10-10T23:01:11.373Z,78.33
2022-10-10T23:03:41.114Z,78.51
2022-10-10T23:06:08.963Z,78.56
2022-10-10T23:08:36.533Z,78.73
2022-10-10T23:11:03.953Z,78.74
2022-10-10T23:13:31.097Z,78.82
2022-10-10T23:15:58.138Z,79.09
2022-10-10T23:18:25.781Z,78.78
2022-10-10T23:20:52.646Z,78.96
2022-10-10T23:23:19.495Z,78.98
2022-10-10T23:25:47.705Z,79.12
2022-10-10T23:28:16.195Z,78.83
2022-10-10T23:30:45.215Z,78.86
2022-10-10T23:33:12.370Z,78.85
2022-10-10T23:35:39.491Z,79.03
2022-10-10T23:38:06.653Z,78.90
2022-10-10T23:40:34.131Z,78.65
2022-10-10T23:43:01.108Z,78.63
2022-10-10T23:45:27.877Z,78.64
2022-10-10T23:47:54.783Z,78.51
2022-10-10T23:50:21.611Z,78.56
2022-10-10T23:52:48.296Z,78.78
2022-10-10T23:55:15.090Z,78.59
2022-10-10T23:57:41.915Z,78.44
